Time;durP1;ratioP1;P1;durP2;ratioP2;P2;SDS_P1;SDS_P2;PMS_P1;PMS_P2;Temp;Humidity;BMP_temperature;BMP_pressure;BME280_temperature;BME280_humidity;BME280_pressure;Samples;Min_cycle;Max_cycle;Signal;HPM_P1;HPM_P2
2024/04/03 00:00:15;;;;;;;1.10;0.77;;;;;;;10.45;100.00;99847.00;4841416;29;20467;-68
2024/04/03 00:02:42;;;;;;;2.77;1.30;;;;;;;10.49;100.00;99850.06;4840802;29;20484;-67
2024/04/03 00:05:10;;;;;;;1.58;1.02;;;;;;;10.52;100.00;99850.41;4846566;29;20444;-67
2024/04/03 00:07:38;;;;;;;1.60;0.73;;;;;;;10.54;100.00;99847.50;4859500;29;20225;-67
2024/04/03 00:10:06;;;;;;;0.80;0.60;;;;;;;10.50;100.00;99840.91;4845449;29;20833;-68
2024/04/03 00:12:33;;;;;;;1.30;1.00;;;;;;;10.51;100.00;99843.34;4862555;29;20480;-68
2024/04/03 00:15:01;;;;;;;1.97;0.90;;;;;;;10.45;100.00;99828.06;4846795;29;20431;-68
2024/04/03 00:17:28;;;;;;;1.10;0.67;;;;;;;10.35;100.00;99833.16;4843923;29;20512;-66
2024/04/03 00:19:56;;;;;;;1.50;1.40;;;;;;;10.29;100.00;99828.66;4862208;29;20962;-67
2024/04/03 00:22:23;;;;;;;1.00;0.67;;;;;;;10.25;100.00;99832.88;4845163;29;20944;-69
2024/04/03 00:24:52;;;;;;;1.20;1.00;;;;;;;10.23;100.00;99829.56;4859760;29;20442;-68
2024/04/03 00:27:20;;;;;;;1.30;0.90;;;;;;;10.33;100.00;99830.69;4860921;29;20407;-68
2024/04/03 00:29:48;;;;;;;1.93;0.90;;;;;;;10.33;100.00;99843.38;4855212;29;21092;-68
2024/04/03 00:32:16;;;;;;;1.83;1.03;;;;;;;10.31;100.00;99842.78;4864256;29;20531;-69
2024/04/03 00:34:43;;;;;;;1.50;1.05;;;;;;;10.31;100.00;99840.09;4859605;29;20452;-67
2024/04/03 00:37:11;;;;;;;2.83;1.20;;;;;;;10.32;100.00;99849.81;4841427;29;20216;-69
2024/04/03 00:39:38;;;;;;;1.20;0.80;;;;;;;10.32;100.00;99847.13;4838585;29;20216;-68
2024/04/03 00:42:07;;;;;;;2.70;1.35;;;;;;;10.26;100.00;99838.03;4841605;29;20966;-68
2024/04/03 00:44:34;;;;;;;1.33;0.90;;;;;;;10.33;100.00;99840.66;4861139;29;20230;-68
2024/04/03 00:47:03;;;;;;;1.47;1.07;;;;;;;10.34;100.00;99847.75;4859803;29;20575;-69
2024/04/03 00:49:30;;;;;;;2.00;1.90;;;;;;;10.41;100.00;99837.66;4840459;29;20523;-69
2024/04/03 00:51:58;;;;;;;1.47;0.80;;;;;;;10.34;100.00;99842.34;4841580;29;20426;-68
2024/04/03 00:54:25;;;;;;;1.07;0.87;;;;;;;10.23;100.00;99832.25;4844534;29;20482;-68
2024/04/03 00:56:53;;;;;;;1.50;0.95;;;;;;;10.29;100.00;99839.47;4858731;29;20451;-68
2024/04/03 00:59:21;;;;;;;1.20;0.80;;;;;;;10.17;100.00;99835.84;4859459;29;20194;-69
2024/04/03 01:01:50;;;;;;;0.97;0.87;;;;;;;10.19;100.00;99836.47;4840919;29;20215;-69
2024/04/03 01:04:17;;;;;;;2.40;1.33;;;;;;;10.24;100.00;99825.81;4853597;29;20837;-69
2024/04/03 01:06:45;;;;;;;1.83;0.90;;;;;;;10.13;100.00;99829.22;4851519;29;20448;-69
2024/04/03 01:09:12;;;;;;;2.63;1.30;;;;;;;10.18;100.00;99832.09;4843827;29;20428;-69
2024/04/03 01:11:39;;;;;;;1.10;1.00;;;;;;;10.23;100.00;99830.38;4855731;29;20471;-69
2024/04/03 01:14:06;;;;;;;2.90;1.43;;;;;;;10.27;100.00;99825.34;4842353;29;20199;-67
2024/04/03 01:16:36;;;;;;;0.90;0.60;;;;;;;10.20;100.00;99821.91;4839719;29;20437;-67
2024/04/03 01:19:03;;;;;;;1.40;0.97;;;;;;;10.19;100.00;99825.66;4840699;29;20470;-68
2024/04/03 01:21:35;;;;;;;1.98;1.80;;;;;;;10.12;100.00;99822.19;4848445;29;20469;-68
2024/04/03 01:24:04;;;;;;;5.00;2.13;;;;;;;10.16;100.00;99818.00;4851951;29;20188;-68
2024/04/03 01:26:32;;;;;;;2.10;1.90;;;;;;;10.16;100.00;99818.00;4843420;29;20436;-68
2024/04/03 01:28:58;;;;;;;3.40;1.57;;;;;;;10.19;100.00;99822.94;4857049;29;20468;-68
2024/04/03 01:31:26;;;;;;;1.97;1.50;;;;;;;10.24;100.00;99820.41;4854184;29;20438;-67
2024/04/03 01:33:53;;;;;;;1.60;1.38;;;;;;;10.29;100.00;99820.56;4843697;29;20483;-69
2024/04/03 01:36:21;;;;;;;1.27;1.17;;;;;;;10.15;100.00;99810.91;4837517;29;20588;-68
2024/04/03 01:38:48;;;;;;;3.67;1.48;;;;;;;10.08;100.00;99815.56;4855693;29;20283;-67
2024/04/03 01:41:18;;;;;;;3.30;1.65;;;;;;;10.07;100.00;99808.53;4858330;29;20587;-68
2024/04/03 01:43:44;;;;;;;1.80;1.50;;;;;;;10.03;100.00;99810.81;4842764;29;21427;-68
2024/04/03 01:46:12;;;;;;;3.38;1.55;;;;;;;10.10;100.00;99813.47;4842584;29;20199;-68
2024/04/03 01:48:39;;;;;;;1.80;1.40;;;;;;;10.20;100.00;99808.38;4852803;29;20605;-68
2024/04/03 01:51:07;;;;;;;4.18;2.13;;;;;;;10.14;100.00;99806.53;4852384;29;20222;-68
2024/04/03 01:53:34;;;;;;;2.30;1.90;;;;;;;10.16;100.00;99807.19;4843215;29;20206;-68
2024/04/03 01:56:01;;;;;;;8.05;1.98;;;;;;;10.16;100.00;99801.78;4839978;29;20251;-67
2024/04/03 01:58:29;;;;;;;1.90;1.67;;;;;;;10.21;100.00;99804.63;4855967;29;20337;-67
2024/04/03 02:00:57;;;;;;;2.33;2.13;;;;;;;10.26;100.00;99799.38;4843075;29;20949;-67
2024/04/03 02:03:24;;;;;;;4.60;2.15;;;;;;;10.27;100.00;99807.25;4858911;29;20744;-67
2024/04/03 02:05:51;;;;;;;2.60;1.67;;;;;;;10.29;100.00;99801.63;4836677;29;20679;-68
2024/04/03 02:08:18;;;;;;;2.30;1.40;;;;;;;10.30;100.00;99804.09;4842757;29;21019;-68
2024/04/03 02:10:46;;;;;;;1.77;1.30;;;;;;;10.37;100.00;99793.19;4840704;29;20942;-68
2024/04/03 02:13:12;;;;;;;4.78;4.10;;;;;;;10.37;100.00;99804.84;4856474;29;20523;-68
2024/04/03 02:15:41;;;;;;;2.17;1.23;;;;;;;10.39;100.00;99791.09;4857325;29;20203;-68
2024/04/03 02:18:08;;;;;;;2.40;2.17;;;;;;;10.44;100.00;99794.78;4841068;29;20609;-69
2024/04/03 02:20:36;;;;;;;2.60;1.60;;;;;;;10.39;100.00;99796.50;4838975;29;21053;-68
2024/04/03 02:23:03;;;;;;;1.03;0.80;;;;;;;10.42;100.00;99787.94;4838322;29;20440;-68
2024/04/03 02:25:31;;;;;;;1.60;1.50;;;;;;;10.37;100.00;99793.19;4858543;29;20440;-68
2024/04/03 02:27:57;;;;;;;2.80;1.30;;;;;;;10.40;100.00;99788.19;4846887;29;20437;-69
2024/04/03 02:30:25;;;;;;;1.30;0.70;;;;;;;10.39;100.00;99791.94;4841736;29;20988;-69
2024/04/03 02:32:53;;;;;;;1.23;1.10;;;;;;;10.39;100.00;99786.53;4841569;29;20847;-68
2024/04/03 02:35:21;;;;;;;1.73;1.63;;;;;;;10.46;100.00;99787.25;4843057;29;20452;-69
2024/04/03 02:37:48;;;;;;;2.00;1.50;;;;;;;10.43;100.00;99784.16;4835113;29;20483;-68
2024/04/03 02:40:15;;;;;;;7.15;2.10;;;;;;;10.45;100.00;99780.22;4857720;29;20591;-68
2024/04/03 02:42:42;;;;;;;5.63;1.73;;;;;;;10.45;100.00;99785.63;4856383;29;20226;-67
2024/04/03 02:45:10;;;;;;;1.97;1.73;;;;;;;10.41;100.00;99778.16;4838603;29;20196;-68
2024/04/03 02:47:37;;;;;;;2.17;1.77;;;;;;;10.45;100.00;99779.38;4858218;29;20448;-67
2024/04/03 02:50:07;;;;;;;4.87;2.47;;;;;;;10.47;100.00;99785.38;4838721;29;20470;-68
2024/04/03 02:52:33;;;;;;;4.60;1.97;;;;;;;10.51;100.00;99789.25;4837588;29;20444;-67
2024/04/03 02:55:04;;;;;;;2.00;1.80;;;;;;;10.46;100.00;99781.00;4840140;29;20543;-66
2024/04/03 02:57:31;;;;;;;2.50;1.90;;;;;;;10.47;100.00;99782.66;4843031;29;20203;-71
2024/04/03 02:59:59;;;;;;;2.83;2.07;;;;;;;10.45;100.00;99779.38;4847276;29;20446;-65
2024/04/03 03:02:26;;;;;;;2.30;1.50;;;;;;;10.49;100.00;99772.44;4846409;29;20432;-67
2024/04/03 03:04:53;;;;;;;1.23;1.13;;;;;;;10.49;100.00;99780.56;4851005;29;20447;-67
2024/04/03 03:07:21;;;;;;;2.47;1.50;;;;;;;10.51;100.00;99789.25;4852691;29;20200;-67
2024/04/03 03:09:49;;;;;;;2.95;2.55;;;;;;;10.44;100.00;99793.94;4863373;29;20199;-66
2024/04/03 03:12:16;;;;;;;2.78;2.50;;;;;;;10.40;100.00;99803.56;4862459;29;20227;-67
2024/04/03 03:14:43;;;;;;;1.87;1.67;;;;;;;10.35;100.00;99789.91;4846276;29;20204;-67
2024/04/03 03:17:10;;;;;;;4.70;2.72;;;;;;;10.26;100.00;99799.38;4849206;29;20451;-67
2024/04/03 03:19:38;;;;;;;2.67;1.70;;;;;;;10.19;100.00;99804.03;4856039;29;20322;-67
2024/04/03 03:22:05;;;;;;;8.70;1.80;;;;;;;10.09;100.00;99809.09;4840848;29;20528;-67
2024/04/03 03:24:35;;;;;;;3.40;1.73;;;;;;;10.10;100.00;99819.69;4846093;29;20195;-67
2024/04/03 03:27:01;;;;;;;2.43;1.67;;;;;;;10.09;100.00;99804.53;4847886;29;20484;-67
2024/04/03 03:29:29;;;;;;;1.77;1.47;;;;;;;9.95;100.00;99816.53;4847226;29;20854;-68
2024/04/03 03:31:56;;;;;;;2.85;1.88;;;;;;;9.89;100.00;99803.91;4840068;29;21023;-68
2024/04/03 03:34:24;;;;;;;8.23;1.97;;;;;;;9.88;100.00;99816.59;4842085;29;20298;-68
2024/04/03 03:36:50;;;;;;;1.37;1.27;;;;;;;9.77;100.00;99820.06;4844216;29;20432;-67
2024/04/03 03:39:18;;;;;;;1.95;1.85;;;;;;;9.68;100.00;99821.38;4861474;29;20686;-68
2024/04/03 03:41:47;;;;;;;3.75;2.22;;;;;;;9.54;100.00;99826.06;4846149;29;20219;-68
2024/04/03 03:44:15;;;;;;;1.00;0.90;;;;;;;9.45;100.00;99829.25;4861158;29;20199;-67
2024/04/03 03:46:41;;;;;;;0.90;0.75;;;;;;;9.44;100.00;99830.31;4858161;29;20282;-68
2024/04/03 03:54:40;;;;;;;1.13;0.90;;;;;;;9.37;100.00;99840.34;4843978;29;20200;-68
2024/04/03 03:57:10;;;;;;;1.85;1.10;;;;;;;9.29;100.00;99852.25;4845675;29;20211;-68
2024/04/03 03:59:37;;;;;;;1.52;0.90;;;;;;;9.23;100.00;99849.59;4837334;29;20584;-68
2024/04/03 04:02:05;;;;;;;1.48;1.10;;;;;;;9.26;100.00;99859.94;4845539;29;20195;-67
2024/04/03 04:04:33;;;;;;;1.15;1.05;;;;;;;9.32;100.00;99857.19;4860766;29;20217;-68
2024/04/03 04:07:00;;;;;;;1.00;0.70;;;;;;;9.37;100.00;99867.34;4843208;29;20220;-68
2024/04/03 04:09:28;;;;;;;1.17;0.95;;;;;;;9.33;100.00;99855.34;4856288;29;20188;-69
2024/04/03 04:11:54;;;;;;;2.65;1.52;;;;;;;9.23;100.00;99855.00;4857703;29;20222;-68
2024/04/03 04:14:23;;;;;;;6.13;1.95;;;;;;;9.31;100.00;99860.09;4844940;29;20625;-67
2024/04/03 04:16:50;;;;;;;3.95;0.95;;;;;;;9.20;100.00;99867.03;4859694;29;20215;-66
2024/04/03 04:19:18;;;;;;;3.58;2.65;;;;;;;9.24;100.00;99872.84;4860148;29;20823;-68
2024/04/03 04:21:44;;;;;;;1.55;1.38;;;;;;;9.21;100.00;99868.69;4845272;29;20645;-68
2024/04/03 04:24:14;;;;;;;1.02;0.80;;;;;;;9.20;100.00;99872.44;4855398;29;20255;-68
2024/04/03 04:26:41;;;;;;;1.83;1.00;;;;;;;9.19;100.00;99878.06;4844567;29;20206;-68
2024/04/03 04:29:09;;;;;;;1.45;1.15;;;;;;;9.15;100.00;99878.47;4856871;29;20255;-68
2024/04/03 04:31:38;;;;;;;2.00;1.73;;;;;;;9.21;100.00;99878.66;4859930;29;20226;-68
2024/04/03 04:34:06;;;;;;;1.40;0.95;;;;;;;9.21;100.00;99878.66;4838833;29;20319;-68
2024/04/03 04:36:32;;;;;;;2.05;0.85;;;;;;;9.23;100.00;99881.97;4860142;29;20309;-68
2024/04/03 04:39:00;;;;;;;1.92;1.05;;;;;;;9.30;100.00;99880.03;4855602;29;20285;-67
2024/04/03 04:41:27;;;;;;;2.08;1.33;;;;;;;9.25;100.00;99879.88;4842907;29;20227;-68
2024/04/03 04:43:54;;;;;;;5.20;1.40;;;;;;;9.24;100.00;99883.63;4859764;29;20594;-67
2024/04/03 04:46:22;;;;;;;1.98;1.20;;;;;;;9.18;100.00;99884.50;4859201;29;20204;-68
2024/04/03 04:48:51;;;;;;;2.70;2.00;;;;;;;9.12;100.00;99886.19;4844053;29;20199;-68
2024/04/03 04:51:20;;;;;;;1.17;1.05;;;;;;;9.19;100.00;99886.16;4844261;29;20235;-68
2024/04/03 04:53:47;;;;;;;2.92;2.00;;;;;;;9.21;100.00;99892.16;4839490;29;20605;-67
2024/04/03 04:56:14;;;;;;;1.55;1.15;;;;;;;9.21;100.00;99889.47;4843900;29;20187;-67
2024/04/03 04:58:42;;;;;;;2.63;1.52;;;;;;;9.19;100.00;99892.41;4844331;29;20270;-68
2024/04/03 05:01:09;;;;;;;2.83;1.50;;;;;;;9.18;100.00;99884.50;4844415;29;20669;-68
2024/04/03 05:03:37;;;;;;;4.10;1.13;;;;;;;9.13;100.00;99887.84;4839778;29;20210;-68
2024/04/03 05:06:13;;;;;;;2.58;0.98;;;;;;;9.07;100.00;99883.31;4861278;29;20200;-68
2024/04/03 05:08:41;;;;;;;1.83;1.42;;;;;;;9.16;100.00;99877.44;4836312;29;20191;-68
2024/04/03 05:11:08;;;;;;;1.60;1.02;;;;;;;9.18;100.00;99876.41;4845024;29;20723;-68
2024/04/03 05:13:36;;;;;;;5.50;0.93;;;;;;;9.20;100.00;99893.22;4845285;29;20206;-68
2024/04/03 05:16:07;;;;;;;1.60;1.10;;;;;;;9.26;100.00;99893.16;4840404;29;20207;-69
2024/04/03 05:18:35;;;;;;;1.20;0.82;;;;;;;9.25;100.00;99890.66;4852676;29;20219;-68
2024/04/03 05:21:01;;;;;;;3.47;1.27;;;;;;;9.29;100.00;99903.53;4834602;29;20231;-68
2024/04/03 05:23:30;;;;;;;4.50;2.13;;;;;;;9.47;100.00;99902.78;4859448;29;20684;-68
2024/04/03 05:25:58;;;;;;;1.17;1.08;;;;;;;9.49;100.00;99906.91;4839474;29;20191;-68
2024/04/03 05:28:28;;;;;;;1.77;0.95;;;;;;;9.56;100.00;99904.16;4835772;29;20192;-68
2024/04/03 05:31:00;;;;;;;2.80;1.42;;;;;;;9.56;100.00;99910.41;4857409;29;20565;-68
2024/04/03 05:33:28;;;;;;;5.47;1.80;;;;;;;9.68;100.00;99917.81;4850262;29;20196;-68
2024/04/03 05:35:55;;;;;;;1.98;1.73;;;;;;;9.52;100.00;99909.19;4843935;29;20202;-69
2024/04/03 05:38:24;;;;;;;1.60;1.10;;;;;;;9.47;100.00;99922.53;4841536;29;20573;-68
2024/04/03 05:40:53;;;;;;;3.08;1.55;;;;;;;9.44;100.00;99922.13;4842376;29;20216;-68
2024/04/03 05:43:21;;;;;;;1.40;1.00;;;;;;;9.51;100.00;99923.72;4841235;29;20208;-68
2024/04/03 05:45:49;;;;;;;8.10;2.20;;;;;;;9.61;100.00;99917.84;4860300;29;20567;-68
2024/04/03 05:48:17;;;;;;;2.15;1.13;;;;;;;9.72;100.00;99927.94;4846001;29;20278;-68
2024/04/03 05:50:44;;;;;;;3.00;1.15;;;;;;;9.85;100.00;99935.94;4846543;29;20226;-68
2024/04/03 05:53:11;;;;;;;1.52;1.10;;;;;;;9.95;100.00;99928.16;4854684;29;20187;-67
2024/04/03 05:55:38;;;;;;;4.03;2.33;;;;;;;9.85;100.00;99935.13;4860771;29;20202;-67
2024/04/03 05:58:07;;;;;;;2.10;1.20;;;;;;;9.90;100.00;99933.41;4843558;29;20575;-68
2024/04/03 06:00:34;;;;;;;3.25;2.13;;;;;;;10.01;100.00;99935.41;4846687;29;20242;-68
2024/04/03 06:03:02;;;;;;;1.60;1.38;;;;;;;9.97;100.00;99934.16;4846117;29;20294;-68
2024/04/03 06:05:29;;;;;;;1.63;1.52;;;;;;;9.85;100.00;99941.34;4851918;29;20203;-68
2024/04/03 06:07:59;;;;;;;1.05;0.95;;;;;;;9.90;100.00;99935.28;4829725;29;20206;-67
2024/04/03 06:10:26;;;;;;;3.07;1.80;;;;;;;9.95;100.00;99941.69;4843446;29;20219;-68
2024/04/03 06:12:54;;;;;;;2.25;1.50;;;;;;;10.00;100.00;99933.72;4843693;29;20451;-67
2024/04/03 06:15:22;;;;;;;2.88;2.50;;;;;;;9.96;100.00;99948.75;4843600;29;20274;-67
2024/04/03 06:17:50;;;;;;;2.83;1.17;;;;;;;10.01;100.00;99940.81;4842357;29;20197;-67
2024/04/03 06:20:16;;;;;;;1.55;1.35;;;;;;;10.26;100.00;99950.78;4843219;29;20796;-68
2024/04/03 06:22:44;;;;;;;3.10;1.70;;;;;;;10.52;100.00;99941.56;4843678;29;20211;-68
2024/04/03 06:25:11;;;;;;;1.80;1.70;;;;;;;10.69;100.00;99951.59;4856095;29;20445;-67
2024/04/03 06:27:38;;;;;;;1.90;1.03;;;;;;;10.61;100.00;99951.03;4849719;29;20454;-67
2024/04/03 06:30:07;;;;;;;2.30;1.87;;;;;;;10.68;100.00;99951.78;4843718;29;20493;-67
2024/04/03 06:32:36;;;;;;;3.07;2.77;;;;;;;10.46;100.00;99949.53;4859605;29;20447;-67
2024/04/03 06:35:03;;;;;;;2.13;1.47;;;;;;;10.50;100.00;99955.34;4858862;29;20436;-66
2024/04/03 06:37:30;;;;;;;1.20;0.80;;;;;;;10.45;100.00;99947.06;4846791;29;20448;-67
2024/04/03 06:39:58;;;;;;;1.83;1.60;;;;;;;10.38;100.00;99946.28;4839045;29;20547;-67
2024/04/03 06:42:25;;;;;;;2.57;1.37;;;;;;;10.40;100.00;99949.63;4861865;29;20436;-66
2024/04/03 06:44:54;;;;;;;2.07;1.37;;;;;;;10.29;100.00;99944.94;4842927;29;20471;-68
2024/04/03 06:47:21;;;;;;;1.83;1.53;;;;;;;10.24;100.00;99932.09;4862266;29;20440;-68
2024/04/03 06:49:53;;;;;;;2.00;1.37;;;;;;;10.31;100.00;99945.56;4850548;29;20440;-68
2024/04/03 06:52:20;;;;;;;4.50;1.93;;;;;;;10.17;100.00;99952.09;4859178;29;20447;-67
2024/04/03 06:54:47;;;;;;;4.67;3.73;;;;;;;10.02;100.00;99965.97;4843719;29;20411;-68
2024/04/03 06:57:14;;;;;;;5.78;2.17;;;;;;;9.92;100.00;99969.13;4846696;29;20444;-68
2024/04/03 06:59:42;;;;;;;1.60;1.03;;;;;;;9.88;100.00;99967.91;4857375;29;20207;-66
2024/04/03 07:02:08;;;;;;;2.03;1.67;;;;;;;9.69;100.00;99979.69;4843616;29;20427;-66
2024/04/03 07:04:36;;;;;;;2.35;1.42;;;;;;;9.55;100.00;99978.13;4846634;29;20200;-67
2024/04/03 07:07:05;;;;;;;2.13;1.67;;;;;;;9.60;100.00;99979.13;4862147;29;20699;-67
2024/04/03 07:09:33;;;;;;;3.28;1.42;;;;;;;9.58;100.00;99977.72;4846292;29;20210;-67
2024/04/03 07:11:59;;;;;;;1.58;1.48;;;;;;;9.51;100.00;99983.16;4840095;29;20203;-68
2024/04/03 07:14:27;;;;;;;2.00;1.63;;;;;;;9.67;100.00;99981.81;4863600;29;20211;-68
2024/04/03 07:16:54;;;;;;;2.80;2.00;;;;;;;9.71;100.00;99985.72;4846144;29;20195;-68
2024/04/03 07:19:21;;;;;;;2.03;1.65;;;;;;;10.06;100.00;99990.66;4861623;29;20203;-67
2024/04/03 07:21:48;;;;;;;1.45;1.35;;;;;;;10.13;100.00;99991.41;4861875;29;20287;-69
2024/04/03 07:24:17;;;;;;;4.70;2.23;;;;;;;9.99;100.00;99994.25;4849082;29;20192;-68
2024/04/03 07:26:45;;;;;;;1.63;1.10;;;;;;;9.91;100.00;99991.81;4844667;29;20443;-68
2024/04/03 07:29:14;;;;;;;5.13;1.50;;;;;;;10.00;100.00;99995.91;4844082;29;20295;-67
2024/04/03 07:31:41;;;;;;;4.20;2.70;;;;;;;10.25;100.00;100005.91;4859944;29;20515;-68
2024/04/03 07:34:09;;;;;;;3.97;2.42;;;;;;;10.43;100.00;100008.66;4843864;29;20444;-69
2024/04/03 07:36:38;;;;;;;7.30;3.67;;;;;;;10.32;100.00;100017.47;4846549;29;20199;-67
2024/04/03 07:39:05;;;;;;;3.43;1.80;;;;;;;10.17;100.00;100019.69;4845799;29;20482;-67
2024/04/03 07:41:34;;;;;;;4.10;2.30;;;;;;;10.29;100.00;100031.47;4858589;29;20468;-67
2024/04/03 07:44:02;;;;;;;5.23;1.80;;;;;;;10.30;100.00;100033.13;4843569;29;21043;-68
2024/04/03 07:46:29;;;;;;;2.37;0.80;;;;;;;10.23;100.00;100035.03;4861149;29;20809;-68
2024/04/03 07:48:57;;;;;;;4.33;1.97;;;;;;;10.19;100.00;100034.66;4861135;29;20446;-66
2024/04/03 07:51:53;;;;;;;2.37;1.43;;;;;;;10.26;100.00;100040.03;4840847;29;21049;-68
2024/04/03 07:54:21;;;;;;;1.90;1.67;;;;;;;10.34;100.00;100042.44;4853028;29;20544;-68
2024/04/03 07:56:50;;;;;;;3.10;1.80;;;;;;;10.19;100.00;100041.94;4845663;29;20436;-67
2024/04/03 07:59:17;;;;;;;3.00;1.43;;;;;;;10.01;100.00;100051.63;4851975;29;20487;-67
2024/04/03 08:01:44;;;;;;;1.63;1.33;;;;;;;10.00;100.00;100059.94;4840565;29;20607;-67
2024/04/03 08:04:12;;;;;;;1.97;0.90;;;;;;;10.21;100.00;100058.78;4852465;29;20435;-67
2024/04/03 08:06:40;;;;;;;3.27;1.60;;;;;;;10.38;100.00;100059.88;4861024;29;20436;-66
2024/04/03 08:09:09;;;;;;;3.43;2.13;;;;;;;10.48;100.00;100064.78;4867749;29;20434;-67
2024/04/03 08:11:36;;;;;;;2.95;2.20;;;;;;;10.86;100.00;100066.28;4836768;29;20460;-67
2024/04/03 08:14:07;;;;;;;2.30;1.30;;;;;;;11.06;98.15;100066.06;4858109;29;20252;-68
2024/04/03 08:16:35;;;;;;;2.47;1.03;;;;;;;11.35;95.06;100072.63;4860234;29;20452;-69
2024/04/03 08:19:03;;;;;;;3.50;2.40;;;;;;;11.75;92.91;100068.38;4845081;29;20471;-68
2024/04/03 08:21:31;;;;;;;4.10;2.77;;;;;;;12.18;91.11;100062.72;4860412;29;20844;-68
2024/04/03 08:23:59;;;;;;;2.50;2.13;;;;;;;12.27;90.48;100051.53;4833522;29;20440;-67
2024/04/03 08:26:30;;;;;;;2.93;1.70;;;;;;;11.93;88.45;100053.09;4846803;29;20460;-66
2024/04/03 08:28:57;;;;;;;1.83;1.37;;;;;;;11.38;90.63;100050.47;4852148;29;20478;-67
2024/04/03 08:31:25;;;;;;;1.00;0.70;;;;;;;11.15;92.59;100062.00;4843819;29;20464;-68
2024/04/03 08:33:53;;;;;;;2.17;1.97;;;;;;;11.02;94.31;100064.03;4852369;29;20436;-68
2024/04/03 08:36:20;;;;;;;2.30;1.87;;;;;;;10.97;94.86;100063.88;4860004;29;20436;-68
2024/04/03 08:38:48;;;;;;;2.50;2.30;;;;;;;10.75;95.66;100061.59;4826098;29;20468;-68
2024/04/03 08:41:15;;;;;;;2.10;1.43;;;;;;;11.07;95.76;100065.03;4859746;29;20456;-68
2024/04/03 08:43:43;;;;;;;10.70;3.77;;;;;;;11.72;92.96;100070.66;4844279;29;20432;-67
2024/04/03 08:46:10;;;;;;;9.07;4.10;;;;;;;11.82;91.10;100084.53;4845126;29;20407;-67
2024/04/03 08:48:40;;;;;;;2.43;1.70;;;;;;;12.07;88.43;100087.09;4860344;29;20463;-67
2024/04/03 08:51:07;;;;;;;2.43;1.40;;;;;;;12.40;87.53;100098.25;4840976;29;20475;-68
2024/04/03 08:53:35;;;;;;;2.33;1.33;;;;;;;12.81;86.57;100094.66;4860763;29;20436;-67
2024/04/03 08:56:02;;;;;;;3.77;2.30;;;;;;;12.75;83.95;100094.75;4856545;29;20854;-69
2024/04/03 08:58:30;;;;;;;2.67;2.07;;;;;;;13.07;84.72;100098.75;4842923;29;20527;-67
2024/04/03 09:00:57;;;;;;;4.57;2.37;;;;;;;13.25;82.68;100101.38;4847149;29;20458;-67
2024/04/03 09:03:25;;;;;;;2.33;2.13;;;;;;;13.51;83.18;100104.66;4844540;29;20887;-69
2024/04/03 09:05:54;;;;;;;4.40;3.67;;;;;;;13.35;82.06;100104.31;4844633;29;20451;-67
2024/04/03 09:08:21;;;;;;;1.33;0.90;;;;;;;13.05;81.75;100095.47;4859804;29;20455;-67
2024/04/03 09:10:49;;;;;;;3.80;1.80;;;;;;;12.79;83.13;100102.19;4846842;29;20439;-68
2024/04/03 09:13:18;;;;;;;5.37;2.20;;;;;;;13.16;84.66;100108.25;4843851;29;20446;-68
2024/04/03 09:15:45;;;;;;;8.30;3.53;;;;;;;13.11;82.92;100105.41;4861533;29;20445;-69
2024/04/03 09:18:14;;;;;;;4.50;2.37;;;;;;;12.90;83.92;100111.41;4842212;29;20442;-69
2024/04/03 09:20:41;;;;;;;9.90;2.80;;;;;;;13.31;82.67;100107.75;4863247;29;20486;-68
2024/04/03 09:23:11;;;;;;;9.10;2.40;;;;;;;13.13;81.77;100103.28;4853411;29;20436;-69
2024/04/03 09:25:38;;;;;;;3.83;1.60;;;;;;;13.40;81.49;100107.16;4872523;29;20460;-67
2024/04/03 09:28:08;;;;;;;1.50;1.10;;;;;;;13.20;80.59;100105.88;4856318;29;20444;-68
2024/04/03 09:30:38;;;;;;;2.87;2.67;;;;;;;13.44;81.42;100111.03;4868195;29;20438;-67
2024/04/03 09:33:07;;;;;;;2.37;0.90;;;;;;;13.54;79.58;100115.84;4866142;29;20793;-67
2024/04/03 09:35:35;;;;;;;2.30;2.10;;;;;;;13.60;78.24;100111.34;4851231;29;20424;-67
2024/04/03 09:38:03;;;;;;;3.47;2.80;;;;;;;13.55;79.54;100111.25;4852688;29;20407;-68
2024/04/03 09:40:33;;;;;;;3.63;2.63;;;;;;;13.87;77.27;100104.28;4848897;29;20490;-68
2024/04/03 09:43:05;;;;;;;13.73;2.17;;;;;;;13.65;77.89;100114.19;4848320;29;20479;-69
2024/04/03 09:45:33;;;;;;;2.53;2.20;;;;;;;13.91;77.97;100110.88;4864144;29;20440;-67
2024/04/03 09:48:01;;;;;;;3.23;2.10;;;;;;;14.08;76.72;100111.75;4844054;29;20598;-68
2024/04/03 09:50:36;;;;;;;4.43;2.37;;;;;;;14.35;76.92;100110.06;4839959;29;20464;-68
2024/04/03 09:53:06;;;;;;;1.93;1.47;;;;;;;14.52;76.02;100114.75;4838979;29;20440;-67
2024/04/03 09:55:36;;;;;;;10.13;2.17;;;;;;;14.65;73.76;100106.25;4843887;29;20539;-68
2024/04/03 09:58:10;;;;;;;2.10;1.47;;;;;;;14.55;73.62;100111.50;4858239;29;20443;-67
2024/04/03 10:00:38;;;;;;;2.10;1.23;;;;;;;14.72;74.22;100115.06;4856795;29;20462;-67
2024/04/03 10:03:06;;;;;;;2.13;1.70;;;;;;;15.29;73.19;100117.56;4835803;29;20441;-68
2024/04/03 10:05:34;;;;;;;2.17;1.67;;;;;;;15.29;71.82;100117.56;4844445;29;20447;-67
2024/04/03 10:08:03;;;;;;;2.20;1.20;;;;;;;15.07;72.87;100112.88;4837539;29;20488;-68
2024/04/03 10:10:30;;;;;;;2.00;1.83;;;;;;;14.91;72.27;100112.91;4858689;29;20805;-66
2024/04/03 10:13:03;;;;;;;1.20;1.00;;;;;;;15.17;70.29;100123.94;4834954;29;20451;-69
2024/04/03 10:15:30;;;;;;;1.70;1.40;;;;;;;15.25;70.27;100121.88;4857746;29;20422;-67
2024/04/03 10:18:06;;;;;;;1.90;1.43;;;;;;;15.00;71.07;100120.41;4841554;29;20500;-68
2024/04/03 10:20:38;;;;;;;3.90;2.10;;;;;;;14.65;71.57;100126.13;4856584;29;20484;-67
2024/04/03 10:23:09;;;;;;;2.73;1.70;;;;;;;14.45;72.25;100117.63;4843615;29;20958;-67
2024/04/03 10:25:36;;;;;;;1.90;1.30;;;;;;;14.49;72.48;100126.94;4842219;29;20426;-67
2024/04/03 10:28:11;;;;;;;6.60;2.00;;;;;;;14.13;73.74;100124.63;4858432;29;20850;-68
2024/04/03 10:30:38;;;;;;;2.27;2.03;;;;;;;14.66;71.88;100121.50;4842316;29;20463;-67
2024/04/03 10:33:07;;;;;;;2.07;1.47;;;;;;;14.84;71.52;100117.69;4858365;29;20462;-68
2024/04/03 10:35:33;;;;;;;1.67;1.43;;;;;;;15.39;69.99;100123.16;4843372;29;20988;-67
2024/04/03 10:38:02;;;;;;;3.67;2.50;;;;;;;15.22;68.67;100129.44;4843161;29;20448;-68
2024/04/03 10:40:30;;;;;;;2.90;1.17;;;;;;;14.73;70.17;100133.03;4855306;29;20483;-67
2024/04/03 10:42:58;;;;;;;8.90;3.03;;;;;;;14.56;72.18;100129.50;4858509;29;20451;-68
2024/04/03 10:45:26;;;;;;;2.97;2.30;;;;;;;14.72;71.44;100134.13;4843401;29;20415;-68
2024/04/03 10:47:54;;;;;;;3.43;2.20;;;;;;;14.59;71.06;100137.16;4842946;29;20599;-68
2024/04/03 10:50:21;;;;;;;1.53;1.33;;;;;;;14.29;73.40;100138.25;4858213;29;20431;-69
2024/04/03 10:52:50;;;;;;;3.30;3.00;;;;;;;14.42;72.83;100136.34;4850089;29;20478;-68
2024/04/03 10:55:19;;;;;;;2.50;2.27;;;;;;;14.22;73.06;100132.16;4853858;29;20424;-69
2024/04/03 10:57:48;;;;;;;3.93;2.73;;;;;;;14.30;74.36;100133.63;4858019;29;20849;-66
2024/04/03 11:00:16;;;;;;;2.40;2.20;;;;;;;14.91;72.36;100130.06;4837985;29;20454;-68
2024/04/03 11:02:46;;;;;;;2.93;2.47;;;;;;;14.86;72.02;100127.28;4858819;29;20965;-68
2024/04/03 11:05:14;;;;;;;4.00;2.83;;;;;;;15.18;70.98;100138.38;4858160;29;20415;-68
2024/04/03 11:07:43;;;;;;;6.30;2.37;;;;;;;15.35;70.16;100132.88;4857678;29;20418;-66
2024/04/03 11:10:12;;;;;;;5.77;2.80;;;;;;;15.01;70.56;100135.66;4857583;29;20858;-67
2024/04/03 11:12:40;;;;;;;2.90;2.50;;;;;;;14.76;72.83;100129.84;4842188;29;20419;-68
2024/04/03 11:15:09;;;;;;;3.03;1.90;;;;;;;14.95;73.22;100139.41;4850484;29;20831;-66
2024/04/03 11:17:37;;;;;;;2.90;1.70;;;;;;;14.55;74.65;100141.47;4841417;29;20426;-68
2024/04/03 11:20:08;;;;;;;3.53;1.57;;;;;;;14.52;75.09;100142.78;4846344;29;20462;-69
2024/04/03 11:22:35;;;;;;;6.80;2.33;;;;;;;14.17;75.07;100137.50;4854973;29;20427;-67
2024/04/03 11:25:05;;;;;;;2.23;1.67;;;;;;;14.20;78.79;100141.63;4861241;29;20440;-68
2024/04/03 11:27:33;;;;;;;3.20;1.73;;;;;;;14.35;76.89;100145.44;4840532;29;20418;-68
2024/04/03 11:30:00;;;;;;;7.43;2.10;;;;;;;14.13;76.13;100146.41;4835068;29;20427;-67
2024/04/03 11:32:28;;;;;;;4.30;3.00;;;;;;;13.77;78.47;100145.69;4857436;29;20411;-68
2024/04/03 11:34:56;;;;;;;1.97;1.43;;;;;;;13.59;80.41;100139.59;4861299;29;20429;-68